Time;durP1;ratioP1;P1;durP2;ratioP2;P2;SDS_P1;SDS_P2;PMS_P1;PMS_P2;Temp;Humidity;BMP_temperature;BMP_pressure;BME280_temperature;BME280_humidity;BME280_pressure;Samples;Min_cycle;Max_cycle;Signal;HPM_P1;HPM_P2
2020/12/16 00:01:41;;;;;;;3.40;3.20;;;7.70;89.30;;;;;;5036741;28;20446;-73
2020/12/16 00:04:07;;;;;;;4.07;3.60;;;7.70;89.30;;;;;;5036783;28;20462;-72
2020/12/16 00:06:34;;;;;;;2.97;2.77;;;7.70;89.20;;;;;;5036683;28;20453;-73
2020/12/16 00:09:00;;;;;;;3.23;2.93;;;7.70;88.90;;;;;;5036240;28;20473;-73
2020/12/16 00:11:26;;;;;;;2.70;2.50;;;7.70;88.70;;;;;;5036670;28;20454;-72
2020/12/16 00:13:53;;;;;;;2.73;2.53;;;7.60;88.40;;;;;;5036256;28;20944;-73
2020/12/16 00:16:20;;;;;;;3.17;2.87;;;7.60;88.10;;;;;;5036545;28;20496;-73
2020/12/16 00:18:46;;;;;;;2.80;2.37;;;7.60;87.90;;;;;;5036580;28;20470;-73
2020/12/16 00:21:12;;;;;;;3.00;2.37;;;7.50;87.90;;;;;;5036518;28;20438;-72
2020/12/16 00:23:38;;;;;;;2.23;2.00;;;7.50;87.60;;;;;;5036353;28;20517;-72
2020/12/16 00:26:04;;;;;;;2.87;2.60;;;7.50;87.50;;;;;;5036344;28;20453;-72
2020/12/16 00:28:30;;;;;;;3.17;2.60;;;7.40;87.20;;;;;;5035790;28;21026;-73
2020/12/16 00:30:57;;;;;;;2.17;2.00;;;7.40;86.90;;;;;;5036136;28;20443;-73
2020/12/16 00:33:24;;;;;;;2.30;2.20;;;7.30;86.70;;;;;;5035675;28;20838;-72
2020/12/16 00:35:50;;;;;;;3.93;2.30;;;7.30;86.80;;;;;;5036002;28;20495;-72
2020/12/16 00:38:16;;;;;;;2.63;2.40;;;7.30;87.20;;;;;;5036112;28;20857;-72
2020/12/16 00:40:42;;;;;;;2.97;2.63;;;7.30;87.00;;;;;;5035970;28;20470;-72
2020/12/16 00:43:08;;;;;;;2.80;2.27;;;7.20;86.80;;;;;;5036172;28;20516;-72
2020/12/16 00:45:35;;;;;;;2.87;2.60;;;7.20;87.00;;;;;;5036218;28;20443;-72
2020/12/16 00:48:01;;;;;;;3.07;2.77;;;7.20;87.20;;;;;;5035531;28;21009;-72
2020/12/16 00:50:28;;;;;;;4.00;3.17;;;7.20;87.20;;;;;;5035717;28;20466;-73
2020/12/16 00:52:54;;;;;;;3.17;2.70;;;7.20;87.00;;;;;;5035804;28;20486;-72
2020/12/16 00:55:21;;;;;;;3.40;3.10;;;7.10;86.60;;;;;;5035702;28;20442;-72
2020/12/16 00:57:47;;;;;;;3.80;3.30;;;7.10;86.90;;;;;;5035735;28;20449;-72
2020/12/16 01:00:15;;;;;;;3.80;3.50;;;7.10;87.50;;;;;;5035804;28;20471;-72
2020/12/16 01:02:42;;;;;;;5.10;3.93;;;7.10;87.90;;;;;;5035642;28;20442;-72
2020/12/16 01:05:08;;;;;;;5.47;4.47;;;7.10;88.00;;;;;;5035392;28;20454;-72
2020/12/16 01:07:38;;;;;;;4.80;3.53;;;7.10;88.20;;;;;;5036125;28;20442;-72
2020/12/16 01:10:05;;;;;;;4.70;4.13;;;7.10;89.20;;;;;;5036134;28;20470;-72
2020/12/16 01:12:31;;;;;;;6.10;4.47;;;7.10;88.80;;;;;;5036101;28;20532;-72
2020/12/16 01:14:57;;;;;;;6.20;5.07;;;7.10;89.10;;;;;;5035978;28;20446;-72
2020/12/16 01:17:23;;;;;;;5.27;4.73;;;7.10;89.60;;;;;;5035345;28;20932;-73
2020/12/16 01:19:49;;;;;;;5.33;4.80;;;7.10;89.80;;;;;;5035188;28;20474;-72
2020/12/16 01:22:16;;;;;;;4.33;3.93;;;7.10;89.80;;;;;;5035310;28;20430;-72
2020/12/16 01:24:43;;;;;;;5.13;4.60;;;7.10;89.80;;;;;;5035109;28;20465;-72
2020/12/16 01:27:09;;;;;;;7.57;6.00;;;7.10;89.80;;;;;;5035092;28;20455;-72
2020/12/16 01:29:35;;;;;;;5.73;4.80;;;7.10;89.70;;;;;;5035537;28;20475;-72
2020/12/16 01:32:01;;;;;;;6.30;5.60;;;7.10;89.70;;;;;;5035082;28;20854;-72
2020/12/16 01:34:27;;;;;;;5.50;5.00;;;7.10;89.90;;;;;;5034586;28;20795;-72
2020/12/16 01:36:54;;;;;;;5.70;5.20;;;7.10;90.00;;;;;;5034671;28;20457;-72
2020/12/16 01:39:20;;;;;;;5.13;4.63;;;7.10;90.20;;;;;;5034568;28;20512;-72
2020/12/16 01:41:49;;;;;;;5.67;5.17;;;7.10;90.30;;;;;;5034914;28;20454;-72
2020/12/16 01:44:17;;;;;;;6.03;5.43;;;7.10;90.30;;;;;;5034576;28;21018;-73
2020/12/16 01:46:48;;;;;;;6.33;5.53;;;7.10;90.40;;;;;;5034572;28;20936;-73
2020/12/16 01:49:14;;;;;;;5.93;5.43;;;7.10;90.40;;;;;;5034650;28;20807;-72
2020/12/16 01:51:42;;;;;;;5.83;5.33;;;7.10;90.40;;;;;;5034619;28;20442;-73
2020/12/16 01:54:09;;;;;;;5.23;4.73;;;7.10;90.40;;;;;;5034620;28;20447;-72
2020/12/16 01:56:39;;;;;;;6.03;5.30;;;7.10;90.30;;;;;;5034600;28;20446;-73
2020/12/16 01:59:10;;;;;;;5.03;4.63;;;7.10;90.30;;;;;;5034417;28;20470;-72
2020/12/16 02:01:38;;;;;;;6.23;5.60;;;7.10;90.20;;;;;;5034571;28;20434;-72
2020/12/16 02:04:06;;;;;;;5.37;4.83;;;7.10;90.60;;;;;;5034137;28;20941;-72
2020/12/16 02:06:34;;;;;;;5.00;4.23;;;7.10;90.20;;;;;;5034357;28;20823;-72
2020/12/16 02:09:04;;;;;;;4.80;4.40;;;7.10;90.20;;;;;;5034471;28;20516;-72
2020/12/16 02:11:32;;;;;;;5.50;5.00;;;7.10;90.10;;;;;;5034725;28;20442;-72
2020/12/16 02:13:59;;;;;;;4.50;4.10;;;7.00;90.10;;;;;;5034139;28;20454;-72
2020/12/16 02:16:28;;;;;;;6.10;5.57;;;7.10;90.20;;;;;;5033709;28;20465;-72
2020/12/16 02:18:54;;;;;;;7.23;6.57;;;7.00;90.20;;;;;;5034078;28;20502;-72
2020/12/16 02:21:20;;;;;;;5.30;4.80;;;7.00;90.30;;;;;;5034165;28;20462;-72
2020/12/16 02:23:48;;;;;;;5.43;4.93;;;7.00;90.30;;;;;;5034134;28;20442;-72
2020/12/16 02:26:15;;;;;;;5.40;4.90;;;7.00;90.30;;;;;;5034050;28;20450;-72
2020/12/16 02:28:42;;;;;;;5.50;5.00;;;7.00;90.30;;;;;;5033949;28;20466;-72
2020/12/16 02:31:09;;;;;;;5.30;4.80;;;7.00;90.20;;;;;;5034161;28;20803;-72
2020/12/16 02:33:35;;;;;;;4.37;3.97;;;7.00;90.20;;;;;;5034067;28;20548;-72
2020/12/16 02:36:01;;;;;;;5.33;4.80;;;7.00;90.10;;;;;;5034085;28;20462;-72
2020/12/16 02:38:28;;;;;;;6.53;5.33;;;7.00;90.10;;;;;;5033773;28;20790;-72
2020/12/16 02:40:54;;;;;;;5.60;4.47;;;7.00;90.20;;;;;;5033851;28;20447;-72
2020/12/16 02:43:21;;;;;;;5.37;4.87;;;7.00;90.10;;;;;;5033751;28;20454;-72
2020/12/16 02:45:47;;;;;;;4.70;4.30;;;6.90;90.00;;;;;;5033829;28;20446;-72
2020/12/16 02:48:13;;;;;;;4.77;4.37;;;6.90;90.00;;;;;;5033791;28;20451;-72
2020/12/16 02:50:40;;;;;;;5.30;4.80;;;6.90;90.00;;;;;;5033603;28;20984;-72
2020/12/16 02:53:06;;;;;;;6.50;5.30;;;6.90;89.90;;;;;;5033559;28;20505;-72
2020/12/16 02:55:33;;;;;;;5.17;4.67;;;6.90;90.00;;;;;;5033905;28;20484;-72
2020/12/16 02:57:59;;;;;;;6.00;5.50;;;6.90;89.90;;;;;;5033327;28;20447;-72
2020/12/16 03:00:26;;;;;;;6.73;5.77;;;6.90;89.40;;;;;;5033496;28;20463;-73
2020/12/16 03:02:52;;;;;;;5.50;5.00;;;6.80;89.30;;;;;;5033241;28;20937;-72
2020/12/16 03:05:19;;;;;;;6.20;5.47;;;6.80;89.40;;;;;;5033517;28;20496;-72
2020/12/16 03:07:45;;;;;;;5.60;5.10;;;6.80;89.60;;;;;;5033152;28;20948;-72
2020/12/16 03:10:11;;;;;;;6.53;5.80;;;6.80;89.80;;;;;;5033222;28;20498;-72
2020/12/16 03:12:37;;;;;;;5.40;4.90;;;6.80;89.80;;;;;;5033471;28;20466;-72
2020/12/16 03:15:04;;;;;;;7.10;6.40;;;6.70;89.80;;;;;;5033092;28;20955;-72
2020/12/16 03:17:31;;;;;;;7.37;5.97;;;6.70;90.00;;;;;;5033489;28;20449;-72
2020/12/16 03:19:57;;;;;;;6.47;5.87;;;6.70;90.00;;;;;;5033450;28;20461;-72
2020/12/16 03:22:23;;;;;;;5.43;4.93;;;6.70;90.00;;;;;;5033743;28;20474;-72
2020/12/16 03:24:49;;;;;;;6.47;5.73;;;6.70;90.00;;;;;;5033196;28;20820;-72
2020/12/16 03:27:16;;;;;;;8.60;6.47;;;6.70;90.00;;;;;;5034186;28;20438;-72
2020/12/16 03:29:42;;;;;;;6.57;5.97;;;6.70;90.10;;;;;;5037117;28;20979;-73
2020/12/16 03:32:08;;;;;;;7.20;5.90;;;6.70;90.20;;;;;;5037283;28;20474;-73
2020/12/16 03:34:36;;;;;;;6.90;6.20;;;6.70;90.40;;;;;;5037257;28;20450;-73
2020/12/16 03:37:03;;;;;;;8.93;6.50;;;6.70;90.50;;;;;;5036864;28;20486;-72
2020/12/16 03:39:29;;;;;;;6.20;5.60;;;6.70;90.60;;;;;;5037173;28;20471;-72
2020/12/16 03:41:55;;;;;;;5.90;5.40;;;6.70;90.60;;;;;;5036926;28;20936;-72
2020/12/16 03:44:21;;;;;;;5.70;5.20;;;6.70;90.70;;;;;;5037184;28;20442;-72
2020/12/16 03:46:50;;;;;;;7.00;6.30;;;6.70;90.70;;;;;;5037254;28;20445;-72
2020/12/16 03:49:16;;;;;;;9.57;6.93;;;6.70;90.80;;;;;;5036737;28;20825;-72
2020/12/16 03:51:44;;;;;;;6.90;6.20;;;6.70;90.90;;;;;;5036966;28;20439;-72
2020/12/16 03:54:10;;;;;;;13.37;6.03;;;6.70;91.00;;;;;;5036526;28;20434;-72
2020/12/16 03:56:36;;;;;;;6.27;5.37;;;6.70;91.10;;;;;;5036866;28;20496;-72
2020/12/16 03:59:03;;;;;;;6.47;5.87;;;6.70;91.10;;;;;;5036697;28;20454;-72
2020/12/16 04:01:29;;;;;;;6.90;6.27;;;6.60;90.90;;;;;;5038475;28;20480;-72
2020/12/16 04:03:55;;;;;;;6.50;5.90;;;6.60;91.00;;;;;;5037387;28;20442;-72
2020/12/16 04:06:21;;;;;;;7.20;6.40;;;6.70;91.10;;;;;;5036727;28;20615;-72
2020/12/16 04:08:48;;;;;;;8.10;6.33;;;6.60;91.10;;;;;;5036629;28;20798;-72
2020/12/16 04:11:17;;;;;;;6.80;6.20;;;6.60;91.10;;;;;;5037002;28;20438;-72
2020/12/16 04:13:43;;;;;;;7.43;6.70;;;6.60;91.20;;;;;;5036878;28;20504;-72
2020/12/16 04:16:13;;;;;;;7.20;6.43;;;6.70;91.20;;;;;;5036607;28;20442;-72
2020/12/16 04:18:39;;;;;;;6.57;5.97;;;6.70;91.30;;;;;;5036271;28;20442;-72
2020/12/16 04:21:05;;;;;;;7.63;6.93;;;6.70;91.30;;;;;;5036013;28;20446;-72
2020/12/16 04:23:32;;;;;;;7.97;7.17;;;6.70;91.30;;;;;;5037143;28;20438;-73
2020/12/16 04:25:59;;;;;;;8.37;6.10;;;6.70;91.40;;;;;;5036255;28;20442;-72
2020/12/16 04:28:25;;;;;;;7.53;6.50;;;6.70;91.40;;;;;;5036228;28;20446;-72
2020/12/16 04:30:52;;;;;;;7.10;6.40;;;6.70;91.40;;;;;;5036230;28;20442;-72
2020/12/16 04:33:18;;;;;;;7.57;6.43;;;6.70;91.40;;;;;;5036047;28;20482;-73
2020/12/16 04:35:44;;;;;;;7.17;6.57;;;6.70;91.40;;;;;;5035796;28;20461;-73
2020/12/16 04:38:10;;;;;;;6.23;5.63;;;6.70;91.30;;;;;;5035207;28;20949;-72
2020/12/16 04:40:37;;;;;;;9.63;6.60;;;6.70;91.30;;;;;;5035882;28;20537;-72
2020/12/16 04:43:06;;;;;;;6.80;6.20;;;6.70;91.30;;;;;;5035638;28;20929;-72
2020/12/16 04:45:33;;;;;;;7.67;6.70;;;6.70;91.30;;;;;;5035921;28;20446;-72
2020/12/16 04:47:59;;;;;;;7.20;6.50;;;6.70;91.40;;;;;;5035946;28;20447;-72
2020/12/16 04:50:26;;;;;;;7.60;6.07;;;6.70;91.40;;;;;;5035818;28;20482;-72
2020/12/16 04:52:52;;;;;;;6.67;6.07;;;6.70;91.30;;;;;;5035388;28;21069;-72
2020/12/16 04:55:20;;;;;;;7.13;6.20;;;6.60;91.20;;;;;;5035992;28;20446;-72
2020/12/16 04:57:51;;;;;;;8.10;6.13;;;6.60;91.00;;;;;;5035369;28;20972;-72
2020/12/16 05:00:19;;;;;;;6.50;5.90;;;6.50;90.90;;;;;;5035583;28;20498;-72
2020/12/16 05:02:53;;;;;;;6.53;5.80;;;6.50;90.80;;;;;;5035310;28;20975;-72
2020/12/16 05:05:20;;;;;;;6.70;6.10;;;6.40;90.70;;;;;;5035636;28;20510;-72
2020/12/16 05:07:48;;;;;;;7.33;6.63;;;6.40;90.90;;;;;;5035543;28;20447;-72
2020/12/16 05:10:16;;;;;;;8.93;6.80;;;6.40;91.20;;;;;;5035438;28;20467;-73
2020/12/16 05:12:43;;;;;;;8.57;7.67;;;6.40;91.50;;;;;;5035066;28;20486;-72
2020/12/16 05:15:23;;;;;;;7.93;7.13;;;6.40;91.80;;;;;;5035403;28;20832;-72
2020/12/16 05:18:04;;;;;;;7.13;6.40;;;6.50;92.00;;;;;;5035098;28;20905;-72
2020/12/16 05:20:30;;;;;;;8.13;6.70;;;6.40;92.00;;;;;;5034951;28;20473;-72
2020/12/16 05:22:59;;;;;;;6.23;5.47;;;6.40;91.80;;;;;;5035266;28;20438;-72
2020/12/16 05:25:26;;;;;;;5.60;5.00;;;6.40;91.60;;;;;;5035123;28;20478;-72
2020/12/16 05:27:52;;;;;;;6.33;5.70;;;6.40;91.40;;;;;;5035097;28;20450;-72
2020/12/16 05:30:18;;;;;;;5.90;5.40;;;6.40;91.20;;;;;;5035030;28;20545;-72
2020/12/16 05:32:46;;;;;;;5.23;4.73;;;6.40;90.90;;;;;;5034913;28;20474;-72
2020/12/16 05:35:27;;;;;;;7.40;6.40;;;6.30;90.70;;;;;;5034837;28;20461;-72
2020/12/16 05:38:01;;;;;;;6.27;5.67;;;6.30;90.70;;;;;;5035237;28;20439;-72
2020/12/16 05:40:29;;;;;;;9.97;6.43;;;6.30;90.80;;;;;;5034835;28;20474;-72
2020/12/16 05:42:55;;;;;;;7.37;6.70;;;6.30;90.90;;;;;;5034778;28;20788;-72
2020/12/16 05:45:24;;;;;;;9.00;7.10;;;6.40;91.10;;;;;;5035396;28;20556;-75
2020/12/16 05:48:02;;;;;;;10.00;7.40;;;6.30;91.10;;;;;;5034761;28;20450;-72
2020/12/16 05:50:36;;;;;;;7.00;6.23;;;6.40;91.20;;;;;;5033512;28;20984;-72
2020/12/16 05:53:11;;;;;;;6.43;5.80;;;6.30;91.10;;;;;;5035553;28;20787;-72
2020/12/16 05:55:38;;;;;;;5.50;5.00;;;6.30;91.00;;;;;;5034972;28;20430;-72
2020/12/16 05:58:09;;;;;;;4.47;4.10;;;6.20;90.70;;;;;;5034563;28;20810;-72
2020/12/16 06:00:43;;;;;;;4.53;4.10;;;6.10;90.50;;;;;;5034133;28;20466;-72
2020/12/16 06:03:16;;;;;;;4.40;4.07;;;6.10;90.30;;;;;;5034404;28;20447;-72
2020/12/16 06:05:45;;;;;;;4.10;3.70;;;6.10;90.30;;;;;;5034454;28;20496;-72
2020/12/16 06:08:12;;;;;;;4.70;4.27;;;6.10;90.30;;;;;;5034432;28;20561;-71
2020/12/16 06:10:42;;;;;;;4.03;3.73;;;6.00;90.60;;;;;;5034254;28;20470;-71
2020/12/16 06:13:12;;;;;;;5.60;5.20;;;6.10;90.30;;;;;;5034401;28;20588;-71
2020/12/16 06:15:52;;;;;;;5.60;4.50;;;6.10;90.30;;;;;;5035366;28;20780;-71
2020/12/16 06:18:20;;;;;;;5.97;4.90;;;6.10;90.40;;;;;;5034945;28;20434;-71
2020/12/16 06:20:46;;;;;;;5.33;4.83;;;6.00;90.60;;;;;;5034483;28;21003;-71
2020/12/16 06:23:21;;;;;;;5.03;4.43;;;6.00;90.80;;;;;;5034569;28;20434;-71
2020/12/16 06:25:49;;;;;;;4.73;4.33;;;5.90;90.10;;;;;;5034626;28;20441;-71
2020/12/16 06:28:16;;;;;;;4.10;3.70;;;5.90;90.00;;;;;;5034142;28;20489;-72
2020/12/16 06:30:52;;;;;;;4.50;4.10;;;5.90;89.70;;;;;;5034578;28;20467;-71
2020/12/16 06:33:34;;;;;;;4.70;4.30;;;5.80;89.60;;;;;;5034479;28;20466;-71
2020/12/16 06:36:04;;;;;;;4.60;4.20;;;5.90;89.80;;;;;;5034349;28;20454;-71
2020/12/16 06:38:30;;;;;;;6.40;5.67;;;5.90;90.00;;;;;;5034683;28;20449;-71
2020/12/16 06:40:58;;;;;;;5.40;4.90;;;5.90;90.10;;;;;;5034763;28;20941;-71
2020/12/16 06:43:41;;;;;;;11.43;5.60;;;5.90;90.30;;;;;;5034837;28;20438;-71
2020/12/16 06:46:46;;;;;;;8.27;6.10;;;5.90;90.40;;;;;;5035832;28;20450;-71
2020/12/16 06:49:36;;;;;;;7.27;6.20;;;5.90;90.60;;;;;;5032293;28;21043;-71
2020/12/16 06:52:05;;;;;;;7.30;5.90;;;5.90;90.70;;;;;;5034800;28;20431;-71
2020/12/16 06:54:47;;;;;;;10.27;5.87;;;5.90;90.70;;;;;;5034380;28;20473;-71
2020/12/16 06:57:19;;;;;;;5.73;5.13;;;6.00;90.90;;;;;;5034501;28;20590;-72
2020/12/16 06:59:53;;;;;;;6.50;5.90;;;6.00;90.90;;;;;;5034219;28;20515;-72
2020/12/16 07:02:28;;;;;;;6.63;5.93;;;6.00;90.90;;;;;;5033159;28;20901;-72
2020/12/16 07:04:58;;;;;;;7.37;6.00;;;6.00;90.90;;;;;;5033757;28;20457;-72
2020/12/16 07:07:40;;;;;;;8.63;7.37;;;6.00;90.80;;;;;;5033698;28;20446;-72
2020/12/16 07:10:41;;;;;;;8.33;7.50;;;6.00;90.90;;;;;;5033283;28;20823;-71
2020/12/16 07:13:19;;;;;;;8.80;7.67;;;6.00;90.90;;;;;;5033133;28;20469;-71
2020/12/16 07:15:47;;;;;;;7.60;6.90;;;6.00;91.10;;;;;;5033451;28;20473;-71
2020/12/16 07:18:32;;;;;;;8.23;7.43;;;6.00;91.20;;;;;;5033347;28;20431;-71
2020/12/16 07:21:14;;;;;;;8.60;7.20;;;6.00;91.20;;;;;;5032830;28;20454;-72
2020/12/16 07:23:44;;;;;;;8.33;6.77;;;6.00;91.30;;;;;;5033406;28;20784;-72
2020/12/16 07:26:12;;;;;;;9.63;7.17;;;6.00;91.20;;;;;;5033258;28;20987;-72
2020/12/16 07:28:38;;;;;;;9.07;7.87;;;6.00;91.30;;;;;;5033230;28;20445;-72
2020/12/16 07:31:06;;;;;;;7.57;6.80;;;6.00;91.30;;;;;;5033208;28;20869;-72
2020/12/16 07:33:33;;;;;;;10.70;6.17;;;6.00;91.30;;;;;;5033209;28;20485;-72
2020/12/16 07:36:00;;;;;;;7.43;6.50;;;6.00;91.20;;;;;;5032971;28;20458;-72
2020/12/16 07:38:27;;;;;;;7.23;6.53;;;6.00;91.20;;;;;;5033163;28;20453;-72
2020/12/16 07:40:55;;;;;;;7.70;5.83;;;6.00;91.10;;;;;;5033084;28;20458;-72
2020/12/16 07:43:22;;;;;;;8.23;6.30;;;6.00;91.10;;;;;;5033155;28;20435;-72
2020/12/16 07:46:05;;;;;;;11.10;7.07;;;6.00;91.10;;;;;;5033144;28;20469;-72
2020/12/16 07:48:31;;;;;;;9.77;6.60;;;6.00;91.00;;;;;;5033036;28;20504;-72
2020/12/16 07:51:06;;;;;;;9.60;7.63;;;5.90;90.80;;;;;;5032817;28;20435;-72
2020/12/16 07:53:32;;;;;;;6.40;5.27;;;5.90;90.80;;;;;;5032904;28;20481;-72
2020/12/16 07:56:03;;;;;;;7.43;6.00;;;5.90;90.70;;;;;;5033022;28;20450;-72
2020/12/16 07:58:31;;;;;;;11.77;5.97;;;5.90;90.70;;;;;;5032925;28;20465;-72
2020/12/16 08:01:10;;;;;;;6.90;6.27;;;5.90;90.70;;;;;;5032625;28;20928;-72
2020/12/16 08:03:38;;;;;;;7.33;5.47;;;5.90;90.60;;;;;;5032929;28;20484;-72
2020/12/16 08:06:06;;;;;;;9.63;6.10;;;5.80;90.90;;;;;;5032868;28;20454;-72
2020/12/16 08:08:41;;;;;;;8.47;6.13;;;5.90;90.70;;;;;;5032837;28;20451;-71
2020/12/16 08:11:12;;;;;;;5.63;5.10;;;5.90;90.70;;;;;;5032912;28;20433;-71
2020/12/16 08:13:38;;;;;;;6.73;6.03;;;5.90;90.70;;;;;;5034320;28;20489;-71
2020/12/16 08:16:05;;;;;;;5.93;5.33;;;5.90;90.60;;;;;;5036800;28;20439;-71
2020/12/16 08:18:31;;;;;;;9.57;6.63;;;5.90;90.70;;;;;;5036938;28;20470;-71
2020/12/16 08:20:58;;;;;;;8.50;6.77;;;6.00;90.90;;;;;;5036484;28;20512;-71
2020/12/16 08:23:25;;;;;;;8.10;7.30;;;6.00;91.00;;;;;;5036367;28;20937;-71
2020/12/16 08:25:52;;;;;;;7.90;6.40;;;6.00;91.40;;;;;;5036927;28;20461;-71
2020/12/16 08:28:25;;;;;;;13.50;7.07;;;6.00;91.00;;;;;;5036884;28;20450;-71
2020/12/16 08:30:52;;;;;;;8.63;7.43;;;6.00;91.00;;;;;;5036939;28;20463;-71
2020/12/16 08:33:20;;;;;;;8.93;7.20;;;6.10;91.00;;;;;;5036058;28;20469;-71
2020/12/16 08:35:50;;;;;;;10.23;8.60;;;6.00;91.00;;;;;;5036094;28;20469;-71
2020/12/16 08:38:23;;;;;;;10.80;8.17;;;6.00;91.00;;;;;;5036187;28;20525;-72
2020/12/16 08:40:52;;;;;;;10.00;7.30;;;6.00;90.90;;;;;;5037143;28;20846;-72
2020/12/16 08:43:24;;;;;;;12.00;10.70;;;6.00;90.90;;;;;;5037331;28;20426;-72
2020/12/16 08:46:02;;;;;;;13.00;11.53;;;6.00;90.90;;;;;;5037915;28;20905;-72
2020/12/16 08:48:29;;;;;;;11.50;10.03;;;6.00;91.00;;;;;;5037195;28;20492;-72
2020/12/16 08:51:03;;;;;;;17.03;10.37;;;6.00;91.10;;;;;;5036122;28;20447;-72
2020/12/16 08:53:29;;;;;;;15.80;12.40;;;6.10;91.20;;;;;;5035728;28;20473;-72
2020/12/16 08:55:56;;;;;;;12.67;9.67;;;6.10;91.30;;;;;;5035517;28;20920;-72
2020/12/16 08:58:22;;;;;;;18.30;11.47;;;6.10;91.30;;;;;;5036047;28;20438;-72
2020/12/16 09:00:48;;;;;;;16.87;12.73;;;6.10;91.40;;;;;;5035663;28;20462;-72
2020/12/16 09:03:15;;;;;;;14.00;11.80;;;6.10;91.50;;;;;;5035598;28;20431;-72
2020/12/16 09:05:41;;;;;;;17.50;13.03;;;6.10;91.60;;;;;;5041692;28;20415;-72
2020/12/16 09:08:13;;;;;;;24.17;15.37;;;6.20;91.70;;;;;;5041444;28;20431;-72
2020/12/16 09:10:40;;;;;;;17.33;12.97;;;6.20;92.00;;;;;;5035544;28;20469;-72
2020/12/16 09:13:09;;;;;;;19.87;13.40;;;6.30;92.50;;;;;;5035187;28;20466;-72
2020/12/16 09:15:36;;;;;;;20.70;14.77;;;6.40;92.90;;;;;;5035122;28;20859;-72
2020/12/16 09:18:02;;;;;;;20.80;15.30;;;6.40;93.10;;;;;;5035077;28;20959;-72
2020/12/16 09:20:30;;;;;;;22.67;15.73;;;6.50;93.30;;;;;;5035025;28;20984;-72
2020/12/16 09:22:56;;;;;;;18.90;13.97;;;6.60;93.70;;;;;;5035452;28;20450;-72
2020/12/16 09:25:23;;;;;;;18.87;13.37;;;6.60;94.20;;;;;;5034874;28;20465;-72
2020/12/16 09:27:50;;;;;;;21.40;14.47;;;6.70;94.40;;;;;;5034853;28;20963;-72
2020/12/16 09:30:29;;;;;;;22.47;14.23;;;6.80;94.50;;;;;;5045776;28;20494;-72
2020/12/16 09:32:56;;;;;;;18.73;13.97;;;6.80;94.60;;;;;;5042066;28;20474;-72
2020/12/16 09:35:23;;;;;;;22.97;16.37;;;7.00;94.90;;;;;;5034678;28;20898;-72
2020/12/16 09:37:50;;;;;;;23.60;16.10;;;7.00;94.90;;;;;;5034704;28;20924;-72
2020/12/16 09:40:16;;;;;;;21.27;15.37;;;7.10;95.10;;;;;;5034954;28;20466;-72
2020/12/16 09:42:54;;;;;;;24.90;17.10;;;7.20;95.30;;;;;;5034863;28;20493;-72
2020/12/16 09:45:21;;;;;;;20.33;15.10;;;7.30;95.60;;;;;;5037018;28;20492;-72
2020/12/16 09:47:49;;;;;;;24.10;16.80;;;7.40;95.70;;;;;;5055699;28;20446;-72
2020/12/16 09:50:16;;;;;;;23.70;17.33;;;7.50;95.80;;;;;;5034691;28;20466;-72
2020/12/16 09:52:42;;;;;;;23.00;19.03;;;7.60;96.00;;;;;;5034637;28;20482;-72
2020/12/16 09:55:14;;;;;;;23.00;17.60;;;7.70;96.10;;;;;;5034831;28;20453;-72
2020/12/16 09:57:41;;;;;;;24.80;16.83;;;7.80;96.30;;;;;;5034552;28;20430;-72
2020/12/16 10:00:08;;;;;;;22.80;16.87;;;7.90;96.30;;;;;;5034595;28;20505;-72
2020/12/16 10:02:35;;;;;;;20.93;15.07;;;8.00;96.30;;;;;;5034576;28;20935;-72
2020/12/16 10:05:06;;;;;;;22.47;16.40;;;8.20;96.50;;;;;;5034657;28;20446;-72
2020/12/16 10:07:33;;;;;;;21.93;15.83;;;8.30;96.50;;;;;;5017525;28;20794;-72
2020/12/16 10:10:02;;;;;;;20.40;15.83;;;8.40;96.70;;;;;;5034384;28;20462;-72
2020/12/16 10:12:29;;;;;;;23.33;17.57;;;8.50;96.80;;;;;;5033938;28;20916;-72
2020/12/16 10:14:56;;;;;;;19.83;14.37;;;8.70;96.80;;;;;;5034567;28;20501;-72
2020/12/16 10:17:25;;;;;;;26.77;17.13;;;8.80;96.70;;;;;;5034375;28;20835;-72
2020/12/16 10:19:53;;;;;;;21.60;15.90;;;8.90;96.50;;;;;;5033883;28;20466;-72
2020/12/16 10:22:21;;;;;;;20.50;15.53;;;8.90;96.30;;;;;;5034374;28;20435;-72
2020/12/16 10:24:47;;;;;;;18.67;16.00;;;9.00;96.20;;;;;;5033796;28;20446;-72
2020/12/16 10:27:14;;;;;;;19.43;16.33;;;9.00;96.20;;;;;;5034112;28;20438;-72
2020/12/16 10:29:40;;;;;;;16.97;13.63;;;9.00;96.10;;;;;;5034249;28;20470;-72
2020/12/16 10:32:06;;;;;;;19.40;14.23;;;9.10;96.00;;;;;;5034153;28;20485;-72
2020/12/16 10:34:32;;;;;;;20.00;15.80;;;9.20;95.90;;;;;;5034000;28;20467;-72
2020/12/16 10:36:58;;;;;;;23.40;15.80;;;9.20;95.80;;;;;;5033736;28;20462;-72
2020/12/16 10:39:26;;;;;;;19.20;15.00;;;9.20;95.90;;;;;;5033746;28;20470;-72
2020/12/16 10:41:55;;;;;;;18.50;15.03;;;9.30;96.00;;;;;;5033832;28;20427;-72
2020/12/16 10:44:22;;;;;;;21.80;16.10;;;9.40;96.10;;;;;;5033499;28;20446;-72
2020/12/16 10:46:50;;;;;;;19.07;15.00;;;9.50;96.20;;;;;;5033736;28;20486;-72
2020/12/16 10:49:17;;;;;;;21.97;15.37;;;9.60;96.20;;;;;;5033657;28;20475;-73
2020/12/16 10:51:43;;;;;;;20.20;16.57;;;9.70;96.20;;;;;;5034006;28;20447;-72
2020/12/16 10:54:10;;;;;;;28.73;16.63;;;9.80;96.20;;;;;;5033584;28;20486;-72
2020/12/16 10:56:37;;;;;;;20.83;17.00;;;9.90;96.20;;;;;;5033640;28;20446;-72
2020/12/16 10:59:03;;;;;;;19.77;15.67;;;10.10;96.10;;;;;;5033623;28;20470;-72
2020/12/16 11:01:34;;;;;;;16.37;14.77;;;10.30;96.10;;;;;;5033824;28;20441;-73
2020/12/16 11:04:00;;;;;;;20.17;15.50;;;10.60;96.60;;;;;;5033674;28;20426;-72
2020/12/16 11:06:26;;;;;;;18.23;15.00;;;11.00;97.20;;;;;;5033535;28;20434;-72
2020/12/16 11:08:53;;;;;;;17.73;14.80;;;11.30;97.40;;;;;;5033181;28;20980;-72
2020/12/16 11:11:19;;;;;;;15.73;13.33;;;11.70;97.20;;;;;;5033719;28;20442;-72
2020/12/16 11:13:45;;;;;;;14.73;11.90;;;12.20;96.70;;;;;;5033174;28;20968;-73
2020/12/16 11:16:11;;;;;;;14.10;12.70;;;12.50;95.00;;;;;;5033677;28;20431;-73
2020/12/16 11:18:38;;;;;;;12.20;11.00;;;12.90;94.50;;;;;;5033048;28;20449;-72
2020/12/16 11:21:04;;;;;;;12.40;10.73;;;13.40;94.00;;;;;;5033542;28;20431;-72
2020/12/16 11:23:30;;;;;;;11.63;10.47;;;14.00;93.40;;;;;;5033382;28;20821;-72
2020/12/16 11:25:57;;;;;;;11.17;10.07;;;14.50;92.40;;;;;;5033333;28;20501;-72
2020/12/16 11:28:23;;;;;;;11.20;10.10;;;14.90;91.10;;;;;;5033425;28;20443;-73
2020/12/16 11:30:49;;;;;;;11.47;10.47;;;15.30;88.70;;;;;;5032871;28;20999;-72
2020/12/16 11:33:15;;;;;;;10.33;9.33;;;15.70;85.70;;;;;;5033309;28;20478;-73
2020/12/16 11:35:42;;;;;;;10.60;9.60;;;16.10;84.40;;;;;;5033152;28;20516;-73
2020/12/16 11:38:08;;;;;;;10.13;9.13;;;16.40;83.40;;;;;;5033550;28;20430;-73
2020/12/16 11:40:35;;;;;;;10.33;9.30;;;16.70;82.90;;;;;;5032939;28;20500;-73
2020/12/16 11:43:01;;;;;;;9.47;8.53;;;16.90;81.00;;;;;;5033220;28;20443;-72
2020/12/16 11:45:27;;;;;;;11.20;10.10;;;17.10;79.70;;;;;;5033188;28;20435;-72
2020/12/16 11:47:53;;;;;;;10.13;9.23;;;17.20;78.40;;;;;;5041759;28;20450;-72
2020/12/16 11:50:19;;;;;;;9.00;8.20;;;17.30;77.20;;;;;;5041761;28;20944;-72
2020/12/16 11:52:46;;;;;;;9.73;8.77;;;17.40;76.40;;;;;;5036890;28;20430;-72
2020/12/16 11:55:13;;;;;;;8.67;7.97;;;17.50;76.00;;;;;;5036889;28;20446;-73
2020/12/16 11:57:39;;;;;;;10.60;8.20;;;17.50;74.60;;;;;;5036865;28;20552;-72
2020/12/16 12:00:05;;;;;;;9.13;8.27;;;17.40;73.60;;;;;;5037382;28;20466;-73
2020/12/16 12:02:32;;;;;;;8.43;7.60;;;17.20;73.80;;;;;;5036858;28;20450;-73
2020/12/16 12:04:58;;;;;;;9.03;8.23;;;17.20;74.00;;;;;;5036407;28;20468;-73
2020/12/16 12:07:24;;;;;;;8.00;7.20;;;17.20;75.30;;;;;;5036377;28;20434;-73
2020/12/16 12:09:51;;;;;;;8.70;7.80;;;17.30;74.30;;;;;;5037334;28;20500;-73
2020/12/16 12:12:17;;;;;;;8.30;7.53;;;17.40;73.80;;;;;;5036767;28;20458;-72
2020/12/16 12:14:44;;;;;;;8.00;7.23;;;17.50;72.40;;;;;;5036541;28;20470;-72
2020/12/16 12:17:11;;;;;;;8.13;7.30;;;17.50;73.00;;;;;;5035911;28;20486;-72
2020/12/16 12:19:42;;;;;;;7.23;6.27;;;17.70;72.90;;;;;;5036614;28;20499;-73
2020/12/16 12:22:08;;;;;;;8.53;7.40;;;17.80;72.00;;;;;;5036117;28;20889;-73
2020/12/16 12:24:37;;;;;;;7.20;6.50;;;17.80;70.60;;;;;;5036099;28;20484;-72
2020/12/16 12:27:05;;;;;;;8.93;7.97;;;17.80;70.20;;;;;;5036031;28;20454;-73
2020/12/16 12:29:32;;;;;;;8.90;4.50;;;17.80;70.00;;;;;;5036024;28;21029;-73
2020/12/16 12:31:59;;;;;;;5.83;3.97;;;17.80;69.30;;;;;;5018550;28;20943;-76
2020/12/16 12:34:26;;;;;;;2.60;2.27;;;17.70;67.60;;;;;;5036222;28;20478;-72
2020/12/16 12:36:55;;;;;;;4.73;2.07;;;17.60;67.70;;;;;;5035681;28;20472;-72
2020/12/16 12:39:22;;;;;;;2.33;1.90;;;17.30;66.70;;;;;;5036414;28;20965;-73
2020/12/16 12:41:53;;;;;;;2.50;1.90;;;17.20;68.20;;;;;;5035964;28;20913;-73
2020/12/16 12:44:21;;;;;;;2.80;2.60;;;17.10;67.90;;;;;;5036273;28;20492;-72
2020/12/16 12:46:50;;;;;;;2.67;2.10;;;17.00;68.30;;;;;;5035989;28;20454;-72
2020/12/16 12:49:17;;;;;;;2.03;1.80;;;16.90;69.30;;;;;;5035802;28;20478;-72
2020/12/16 12:51:49;;;;;;;4.23;2.80;;;16.90;68.50;;;;;;5035968;28;20989;-72
2020/12/16 12:54:16;;;;;;;2.20;2.00;;;16.70;68.60;;;;;;5035824;28;20478;-72
2020/12/16 12:56:43;;;;;;;1.80;1.70;;;16.70;68.60;;;;;;5035933;28;20427;-73